Time;durP1;ratioP1;P1;durP2;ratioP2;P2;SDS_P1;SDS_P2;PMS_P1;PMS_P2;Temp;Humidity;BMP_temperature;BMP_pressure;BME280_temperature;BME280_humidity;BME280_pressure;Samples;Min_cycle;Max_cycle;Signal;HPM_P1;HPM_P2
2021/07/08 00:00:08;;;;;;;10.45;6.25;;;18.90;93.60;;;;;;4923962;29;20115;-87
2021/07/08 00:02:34;;;;;;;10.55;6.10;;;18.90;93.60;;;;;;4924246;29;20476;-86
2021/07/08 00:05:01;;;;;;;11.27;5.97;;;19.00;93.60;;;;;;4924355;29;20160;-87
2021/07/08 00:07:27;;;;;;;11.15;6.07;;;18.90;93.60;;;;;;4924460;29;20190;-88
2021/07/08 00:09:58;;;;;;;10.55;6.05;;;18.90;93.60;;;;;;4925275;29;20051;-87
2021/07/08 00:12:25;;;;;;;12.45;6.32;;;18.90;93.60;;;;;;4926848;29;20480;-87
2021/07/08 00:14:50;;;;;;;11.32;5.90;;;18.80;93.50;;;;;;4925590;29;20036;-85
2021/07/08 00:17:36;;;;;;;10.82;6.03;;;18.80;93.60;;;;;;4924743;29;20046;-86
2021/07/08 00:20:14;;;;;;;10.95;6.30;;;18.90;93.70;;;;;;4925259;29;20476;-87
2021/07/08 00:22:41;;;;;;;10.32;6.15;;;18.80;93.70;;;;;;4940884;29;20028;-88
2021/07/08 00:25:12;;;;;;;10.82;6.30;;;19.00;93.70;;;;;;4926532;29;20030;-88
2021/07/08 00:27:40;;;;;;;11.73;6.40;;;18.90;93.60;;;;;;4942354;29;20020;-87
2021/07/08 00:30:10;;;;;;;11.65;6.75;;;18.80;93.70;;;;;;4942297;29;20027;-87
2021/07/08 00:32:42;;;;;;;11.25;6.10;;;18.80;93.50;;;;;;4940484;29;20151;-87
2021/07/08 00:35:10;;;;;;;12.05;6.25;;;18.70;93.40;;;;;;4939334;29;20031;-86
2021/07/08 00:37:38;;;;;;;11.50;6.30;;;18.70;93.60;;;;;;4923102;29;20027;-87
2021/07/08 00:40:06;;;;;;;11.75;5.90;;;18.70;93.70;;;;;;4940503;29;20035;-86
2021/07/08 00:42:32;;;;;;;13.18;6.63;;;18.70;93.80;;;;;;4940907;29;20020;-86
2021/07/08 00:44:57;;;;;;;12.35;6.63;;;18.60;93.80;;;;;;4925808;29;20037;-86
2021/07/08 00:47:26;;;;;;;11.25;6.53;;;18.90;93.80;;;;;;4949529;29;20027;-86
2021/07/08 00:49:52;;;;;;;12.38;6.78;;;18.70;93.60;;;;;;4956384;29;20024;-86
2021/07/08 00:52:18;;;;;;;11.27;6.75;;;18.70;93.70;;;;;;4941287;29;20043;-87
2021/07/08 00:54:43;;;;;;;16.10;7.43;;;18.70;93.80;;;;;;4940951;29;20052;-87
2021/07/08 00:57:09;;;;;;;14.07;6.55;;;18.60;93.70;;;;;;4940535;29;20026;-87
2021/07/08 00:59:49;;;;;;;12.73;6.85;;;18.70;93.80;;;;;;4940645;29;20027;-86
2021/07/08 01:02:17;;;;;;;11.57;6.75;;;18.70;93.80;;;;;;4941065;29;20034;-86
2021/07/08 01:04:48;;;;;;;12.15;6.93;;;18.80;93.80;;;;;;4940493;29;20040;-86
2021/07/08 01:07:18;;;;;;;14.00;7.00;;;18.60;93.90;;;;;;4941613;29;20357;-86
2021/07/08 01:09:44;;;;;;;13.43;7.20;;;18.70;93.80;;;;;;4940131;29;20028;-87
2021/07/08 01:12:10;;;;;;;11.82;6.80;;;18.80;93.80;;;;;;4941179;29;20357;-86
2021/07/08 01:14:37;;;;;;;11.77;7.00;;;18.60;93.80;;;;;;4938653;29;20034;-87
2021/07/08 01:17:08;;;;;;;12.57;6.90;;;18.60;93.80;;;;;;4939935;29;20118;-87
2021/07/08 01:19:36;;;;;;;11.90;7.63;;;18.60;93.90;;;;;;4940631;29;20031;-87
2021/07/08 01:22:02;;;;;;;13.30;7.80;;;18.60;93.90;;;;;;4940001;29;20051;-86
2021/07/08 01:24:31;;;;;;;11.70;7.38;;;18.60;94.00;;;;;;4939416;29;20047;-86
2021/07/08 01:26:58;;;;;;;13.80;7.45;;;18.80;94.00;;;;;;4940142;29;20028;-86
2021/07/08 01:29:29;;;;;;;13.77;7.78;;;18.60;94.00;;;;;;4939573;29;20028;-86
2021/07/08 01:31:56;;;;;;;12.90;7.80;;;18.70;94.00;;;;;;4939652;29;20024;-86
2021/07/08 01:37:46;;;;;;;14.55;7.70;;;18.70;94.00;;;;;;4925833;29;20038;-87
2021/07/08 01:40:15;;;;;;;14.48;7.97;;;18.70;94.00;;;;;;4921583;29;20044;-87
2021/07/08 01:42:41;;;;;;;14.23;7.88;;;18.70;93.90;;;;;;4937668;29;20027;-87
2021/07/08 01:45:08;;;;;;;13.40;7.63;;;18.90;94.00;;;;;;4937818;29;20046;-87
2021/07/08 01:47:35;;;;;;;12.38;7.38;;;18.70;94.00;;;;;;4937024;29;20031;-86
2021/07/08 01:50:03;;;;;;;15.57;8.45;;;18.70;94.00;;;;;;4937170;29;20032;-86
2021/07/08 01:52:29;;;;;;;15.45;8.10;;;18.70;94.10;;;;;;4921100;29;20038;-86
2021/07/08 01:54:54;;;;;;;17.80;9.13;;;18.70;94.00;;;;;;4937515;29;20036;-87
2021/07/08 01:57:20;;;;;;;17.20;8.65;;;18.70;93.90;;;;;;4937585;29;20024;-86
2021/07/08 01:59:46;;;;;;;13.48;8.07;;;18.70;94.00;;;;;;4922763;29;20108;-86
2021/07/08 02:02:45;;;;;;;16.63;8.82;;;18.70;94.00;;;;;;4922520;29;20054;-86
2021/07/08 02:05:30;;;;;;;17.48;9.32;;;18.70;94.00;;;;;;4912404;29;20399;-86
2021/07/08 02:08:31;;;;;;;;;;;;;;;;;;;;;
2021/07/08 02:11:30;;;;;;;15.68;8.95;;;18.70;94.10;;;;;;4933789;29;20051;-87
2021/07/08 02:14:24;;;;;;;18.00;9.15;;;18.70;94.20;;;;;;4958391;29;20031;-87
2021/07/08 02:17:07;;;;;;;16.13;9.10;;;18.70;94.10;;;;;;4932742;29;20115;-87
2021/07/08 02:19:44;;;;;;;14.07;8.90;;;18.70;94.10;;;;;;4944703;29;20027;-87
2021/07/08 02:22:12;;;;;;;17.20;8.82;;;18.50;94.00;;;;;;4912704;29;20500;-87
2021/07/08 02:24:42;;;;;;;15.27;8.52;;;18.70;94.10;;;;;;4927792;29;20132;-87
2021/07/08 02:27:13;;;;;;;15.95;8.73;;;18.70;94.10;;;;;;4942113;29;20036;-86
2021/07/08 02:30:12;;;;;;;16.27;9.18;;;18.70;94.10;;;;;;4944498;29;20031;-86
2021/07/08 02:36:02;;;;;;;13.95;8.65;;;18.70;94.10;;;;;;4897854;29;20059;-87
2021/07/08 02:39:00;;;;;;;15.07;8.73;;;18.70;94.10;;;;;;4907761;29;20040;-87
2021/07/08 02:41:48;;;;;;;15.70;8.93;;;18.60;94.10;;;;;;4905927;29;20029;-87
2021/07/08 02:45:05;;;;;;;;;;;;;;;;;;;;;
2021/07/08 02:48:11;;;;;;;15.50;9.55;;;18.80;94.30;;;;;;4923030;29;20111;-87
2021/07/08 02:50:41;;;;;;;15.18;8.93;;;18.70;94.20;;;;;;4921040;29;20047;-86
2021/07/08 02:53:06;;;;;;;15.30;8.65;;;18.70;94.20;;;;;;4907322;29;20420;-84
2021/07/08 02:55:37;;;;;;;17.70;9.25;;;18.60;94.20;;;;;;4923846;29;20039;-83
2021/07/08 02:58:06;;;;;;;16.90;9.57;;;18.70;94.20;;;;;;4924356;29;20024;-85
2021/07/08 03:00:35;;;;;;;13.82;8.32;;;18.70;94.20;;;;;;4923509;29;20032;-86
2021/07/08 03:03:03;;;;;;;16.80;9.05;;;18.70;94.20;;;;;;4924539;29;20449;-87
2021/07/08 03:05:29;;;;;;;14.77;8.43;;;18.70;94.20;;;;;;4923399;29;20076;-86
2021/07/08 03:07:55;;;;;;;17.27;8.90;;;18.70;94.20;;;;;;4923888;29;20099;-87
2021/07/08 03:10:23;;;;;;;15.88;9.35;;;18.70;94.20;;;;;;4908933;29;20075;-87
2021/07/08 03:12:49;;;;;;;15.55;8.65;;;18.70;94.30;;;;;;4908049;29;20115;-88
2021/07/08 03:15:16;;;;;;;17.05;8.95;;;18.70;94.30;;;;;;4907035;29;20040;-87
2021/07/08 03:17:41;;;;;;;16.63;9.05;;;18.80;94.30;;;;;;4908002;29;20072;-87
2021/07/08 03:20:19;;;;;;;14.82;8.80;;;18.60;94.20;;;;;;4908132;29;20024;-87
2021/07/08 03:22:47;;;;;;;15.38;9.57;;;18.70;94.20;;;;;;4924057;29;20024;-87
2021/07/08 03:25:14;;;;;;;16.48;8.15;;;18.70;94.30;;;;;;4923350;29;20107;-85
2021/07/08 03:27:41;;;;;;;18.75;8.63;;;18.70;94.30;;;;;;4923188;29;20107;-87
2021/07/08 03:30:11;;;;;;;14.98;8.95;;;18.80;94.30;;;;;;4905322;29;20024;-87
2021/07/08 03:32:37;;;;;;;14.43;8.38;;;18.70;94.40;;;;;;4916141;29;20032;-87
2021/07/08 03:35:04;;;;;;;13.30;8.38;;;18.70;94.40;;;;;;4947584;29;20012;-87
2021/07/08 03:37:30;;;;;;;13.27;7.72;;;18.70;94.40;;;;;;4928449;29;20034;-88
2021/07/08 03:39:56;;;;;;;14.23;8.45;;;18.70;94.40;;;;;;4924290;29;20027;-87
2021/07/08 03:42:22;;;;;;;13.88;7.90;;;18.70;94.40;;;;;;4924940;29;20031;-85
2021/07/08 03:44:47;;;;;;;14.27;8.18;;;18.90;94.40;;;;;;4941137;29;20087;-86
2021/07/08 03:47:13;;;;;;;13.90;8.60;;;18.90;94.40;;;;;;4921950;29;20028;-86
2021/07/08 03:49:38;;;;;;;14.05;8.25;;;18.80;94.50;;;;;;4904776;29;20039;-87
2021/07/08 03:52:04;;;;;;;14.52;8.18;;;18.90;94.50;;;;;;4937519;29;20035;-86
2021/07/08 03:54:30;;;;;;;14.57;8.40;;;18.80;94.40;;;;;;4933309;29;20048;-86
2021/07/08 03:56:56;;;;;;;15.07;8.77;;;18.80;94.50;;;;;;4936247;29;20038;-86
2021/07/08 03:59:21;;;;;;;17.15;8.85;;;18.90;94.40;;;;;;4937120;29;20500;-86
2021/07/08 04:01:48;;;;;;;15.95;8.88;;;18.90;94.50;;;;;;4936306;29;20024;-86
2021/07/08 04:04:14;;;;;;;14.02;7.85;;;18.90;94.50;;;;;;4920896;29;20449;-86
2021/07/08 04:06:52;;;;;;;12.65;8.25;;;18.90;94.50;;;;;;4936345;29;20067;-88
2021/07/08 04:09:21;;;;;;;15.07;8.43;;;18.90;94.50;;;;;;4905773;29;20396;-86
2021/07/08 04:11:54;;;;;;;18.77;10.65;;;18.90;94.40;;;;;;4935700;29;20028;-87
2021/07/08 04:14:26;;;;;;;14.85;8.52;;;19.00;94.50;;;;;;4936685;29;20500;-87
2021/07/08 04:16:56;;;;;;;13.45;8.88;;;18.90;94.50;;;;;;4937162;29;20032;-86
2021/07/08 04:19:22;;;;;;;13.52;7.88;;;19.00;94.50;;;;;;4935983;29;20034;-86
2021/07/08 04:21:55;;;;;;;15.77;7.93;;;19.00;94.50;;;;;;4916655;29;20119;-85
2021/07/08 04:24:23;;;;;;;13.52;7.32;;;18.80;94.70;;;;;;4916567;29;20071;-86
2021/07/08 04:26:52;;;;;;;22.30;14.52;;;19.00;94.40;;;;;;4915396;29;20127;-86
2021/07/08 04:29:24;;;;;;;20.13;12.10;;;18.90;94.40;;;;;;4916860;29;20032;-86
2021/07/08 04:31:52;;;;;;;16.30;9.77;;;18.90;94.30;;;;;;4932168;29;20088;-86
2021/07/08 04:34:20;;;;;;;14.82;8.45;;;19.00;94.40;;;;;;4917870;29;20032;-87
2021/07/08 04:37:06;;;;;;;15.02;7.60;;;19.00;94.40;;;;;;4930049;29;20091;-87
2021/07/08 04:39:50;;;;;;;15.02;7.57;;;18.90;94.30;;;;;;4932314;29;20036;-87
2021/07/08 04:42:18;;;;;;;15.02;10.20;;;18.80;94.40;;;;;;4917121;29;20124;-87
2021/07/08 04:44:50;;;;;;;13.15;8.77;;;18.80;94.40;;;;;;4916545;29;20485;-87
2021/07/08 04:47:18;;;;;;;14.40;8.35;;;18.80;94.30;;;;;;4916426;29;20040;-86
2021/07/08 04:49:46;;;;;;;15.13;7.40;;;18.90;94.50;;;;;;4916180;29;20036;-87
2021/07/08 04:52:14;;;;;;;12.05;7.15;;;18.90;94.50;;;;;;4916175;29;20032;-86
2021/07/08 04:54:39;;;;;;;13.98;8.20;;;18.80;94.50;;;;;;4934419;29;20051;-86
2021/07/08 04:57:08;;;;;;;12.82;7.68;;;18.80;94.60;;;;;;4919345;29;20502;-86
2021/07/08 04:59:34;;;;;;;16.10;8.00;;;18.80;94.50;;;;;;4919531;29;20031;-86
2021/07/08 05:02:01;;;;;;;13.55;7.20;;;18.90;94.60;;;;;;4936385;29;20023;-87
2021/07/08 05:04:36;;;;;;;11.15;7.40;;;18.90;94.60;;;;;;4919031;29;20508;-87
2021/07/08 05:07:11;;;;;;;13.25;6.90;;;19.00;94.70;;;;;;4903919;29;20031;-87
2021/07/08 05:09:41;;;;;;;11.95;6.70;;;19.10;94.70;;;;;;4919888;29;20047;-88
2021/07/08 05:12:09;;;;;;;10.93;6.57;;;19.00;94.60;;;;;;4919922;29;20032;-87
2021/07/08 05:14:38;;;;;;;12.25;7.18;;;19.00;94.60;;;;;;4936191;29;20110;-88
2021/07/08 05:17:07;;;;;;;12.88;7.57;;;19.10;94.70;;;;;;4919137;29;20544;-85
2021/07/08 05:23:14;;;;;;;12.77;7.70;;;19.10;94.50;;;;;;5122433;23;20097;-83
2021/07/08 05:25:46;;;;;;;13.77;7.70;;;19.10;94.70;;;;;;4897109;29;20059;-88
2021/07/08 05:28:13;;;;;;;13.02;7.07;;;19.10;94.60;;;;;;4873668;29;20028;-88
2021/07/08 05:30:39;;;;;;;11.65;7.22;;;19.10;94.60;;;;;;4863279;29;20565;-85
2021/07/08 05:33:05;;;;;;;14.15;6.60;;;19.10;94.60;;;;;;4879048;29;20025;-91
2021/07/08 05:35:31;;;;;;;12.90;7.10;;;19.10;94.70;;;;;;4884447;29;20355;-90
2021/07/08 05:37:57;;;;;;;12.40;7.10;;;19.30;94.70;;;;;;4879586;29;20041;-86
2021/07/08 05:40:23;;;;;;;10.95;6.68;;;19.10;94.60;;;;;;4885907;29;20032;-89
2021/07/08 05:42:54;;;;;;;10.73;6.65;;;19.20;94.60;;;;;;4898152;29;20478;-85
2021/07/08 05:45:21;;;;;;;10.80;6.75;;;19.20;94.60;;;;;;4866412;29;20383;-84
2021/07/08 05:47:53;;;;;;;11.43;7.00;;;19.20;94.60;;;;;;4866469;29;20025;-86
2021/07/08 05:50:23;;;;;;;12.73;7.07;;;19.20;94.70;;;;;;4883067;29;20040;-84
2021/07/08 05:52:51;;;;;;;12.07;6.63;;;19.30;94.70;;;;;;4866917;29;20048;-84
2021/07/08 05:55:19;;;;;;;10.50;6.43;;;19.20;94.70;;;;;;4882841;29;20044;-84
2021/07/08 05:57:56;;;;;;;11.00;6.30;;;19.20;94.50;;;;;;4866515;29;20428;-84
2021/07/08 06:00:41;;;;;;;12.45;6.38;;;19.20;94.60;;;;;;4882753;29;20491;-84
2021/07/08 06:03:09;;;;;;;11.43;7.10;;;19.30;94.80;;;;;;4865521;29;20048;-84
2021/07/08 06:05:40;;;;;;;11.18;5.88;;;19.30;94.80;;;;;;4881326;29;20538;-84
2021/07/08 06:08:09;;;;;;;11.13;6.95;;;19.30;94.60;;;;;;4865995;29;20033;-84
2021/07/08 06:10:46;;;;;;;11.27;6.38;;;19.30;94.50;;;;;;4865767;29;20135;-84
2021/07/08 06:13:14;;;;;;;11.55;6.95;;;19.30;94.40;;;;;;4866174;29;20025;-84
2021/07/08 06:15:40;;;;;;;12.25;6.00;;;19.20;94.40;;;;;;4881687;29;20035;-84
2021/07/08 06:18:06;;;;;;;12.88;7.00;;;19.30;94.50;;;;;;4881318;29;20033;-84
2021/07/08 06:20:40;;;;;;;10.60;6.47;;;19.20;94.60;;;;;;4866127;29;20025;-84
2021/07/08 06:23:12;;;;;;;12.38;6.47;;;19.20;94.80;;;;;;4864311;29;20489;-85
2021/07/08 06:25:46;;;;;;;13.35;7.38;;;19.20;94.90;;;;;;4864576;29;20044;-85
2021/07/08 06:28:15;;;;;;;11.40;6.88;;;19.30;94.90;;;;;;4864881;29;20124;-85
2021/07/08 06:34:09;;;;;;;12.30;7.15;;;19.50;95.00;;;;;;4882675;29;20362;-85
2021/07/08 06:36:49;;;;;;;11.18;6.68;;;19.60;95.10;;;;;;4871901;29;20032;-85
2021/07/08 06:39:43;;;;;;;11.10;5.82;;;19.80;95.20;;;;;;4900340;29;20024;-84
2021/07/08 06:42:35;;;;;;;10.10;5.57;;;19.90;95.10;;;;;;4884320;29;20393;-84
2021/07/08 06:45:12;;;;;;;9.75;5.45;;;20.00;95.10;;;;;;4882515;29;20116;-85
2021/07/08 06:48:15;;;;;;;10.05;4.97;;;20.00;94.70;;;;;;4883058;29;20485;-85
2021/07/08 06:51:10;;;;;;;11.27;5.70;;;20.10;94.90;;;;;;4883157;29;20041;-85
2021/07/08 06:54:01;;;;;;;;;;;;;;;;;;;;;
2021/07/08 06:56:38;;;;;;;8.95;4.75;;;20.40;95.10;;;;;;4901098;29;20041;-84
2021/07/08 06:59:08;;;;;;;7.90;4.30;;;20.30;95.10;;;;;;4900405;29;20029;-85
2021/07/08 07:01:34;;;;;;;7.15;3.50;;;20.40;95.20;;;;;;4884010;29;20107;-84
2021/07/08 07:04:02;;;;;;;7.75;3.92;;;20.60;95.10;;;;;;4900001;29;20029;-85
2021/07/08 07:06:49;;;;;;;7.35;3.42;;;20.70;94.90;;;;;;4883328;29;20266;-84
2021/07/08 07:09:29;;;;;;;9.00;3.88;;;20.70;94.40;;;;;;4883463;29;20068;-84
2021/07/08 07:11:58;;;;;;;4.47;2.70;;;20.40;94.00;;;;;;4900260;29;20028;-84
2021/07/08 07:14:25;;;;;;;5.45;2.92;;;20.30;94.30;;;;;;4883869;29;20025;-84
2021/07/08 07:16:55;;;;;;;7.25;3.40;;;20.30;94.40;;;;;;4899013;29;20024;-84
2021/07/08 07:19:47;;;;;;;7.80;3.80;;;20.20;94.30;;;;;;4883087;29;20033;-84
2021/07/08 07:22:15;;;;;;;7.22;3.22;;;20.20;94.20;;;;;;4884604;29;20516;-84
2021/07/08 07:24:52;;;;;;;6.70;3.00;;;20.10;94.40;;;;;;4917650;29;20044;-84
2021/07/08 07:27:26;;;;;;;6.00;3.00;;;20.00;94.80;;;;;;4901402;29;20035;-84
2021/07/08 07:29:54;;;;;;;6.55;3.13;;;20.10;94.60;;;;;;4918695;29;20424;-84
2021/07/08 07:32:20;;;;;;;5.20;2.72;;;20.10;94.80;;;;;;4903722;29;20052;-84
2021/07/08 07:34:48;;;;;;;5.60;2.80;;;20.30;94.70;;;;;;4902068;29;20029;-84
2021/07/08 07:37:19;;;;;;;5.18;2.80;;;20.20;94.70;;;;;;4907249;29;20473;-85
2021/07/08 07:39:47;;;;;;;6.05;3.10;;;20.10;94.50;;;;;;4922449;29;20095;-84
2021/07/08 07:42:15;;;;;;;4.70;2.65;;;20.10;94.70;;;;;;4919592;29;20024;-84
2021/07/08 07:44:45;;;;;;;6.32;3.03;;;20.20;94.80;;;;;;4918678;29;20050;-84
2021/07/08 07:47:17;;;;;;;8.48;3.08;;;20.20;94.60;;;;;;4918743;29;20099;-84
2021/07/08 07:49:44;;;;;;;6.78;3.00;;;20.30;94.70;;;;;;4901509;29;20032;-84
2021/07/08 07:52:22;;;;;;;5.47;2.88;;;20.50;94.80;;;;;;4901477;29;20051;-84
2021/07/08 07:55:27;;;;;;;23.52;3.70;;;20.50;94.90;;;;;;4917563;29;20485;-85
2021/07/08 07:57:58;;;;;;;6.28;2.92;;;20.40;94.90;;;;;;4917673;29;20430;-84
2021/07/08 08:03:16;;;;;;;5.95;2.75;;;20.70;95.20;;;;;;4909065;29;20047;-84
2021/07/08 08:08:47;;;;;;;;;;;;;;;;;;;;;
2021/07/08 08:11:21;;;;;;;7.38;2.80;;;21.50;95.20;;;;;;4918106;29;20028;-84
2021/07/08 08:14:07;;;;;;;6.37;2.70;;;21.10;95.20;;;;;;4901543;29;20076;-84
2021/07/08 08:16:39;;;;;;;5.05;2.60;;;21.50;95.30;;;;;;4900835;29;20075;-84
2021/07/08 08:19:07;;;;;;;7.40;2.85;;;;;;;;;;4901365;29;20032;-84
2021/07/08 08:21:57;;;;;;;4.80;2.60;;;;;;;;;;4918188;29;20024;-84
2021/07/08 08:24:24;;;;;;;4.25;2.20;;;;;;;;;;4900664;29;20515;-84
2021/07/08 08:27:01;;;;;;;5.38;2.53;;;;;;;;;;4901269;29;20028;-84
2021/07/08 08:29:37;;;;;;;5.57;2.22;;;;;;;;;;4901241;29;20058;-84
2021/07/08 08:32:10;;;;;;;5.15;2.30;;;;;;;;;;4900947;29;20527;-85
2021/07/08 08:34:39;;;;;;;3.15;2.00;;;;;;;;;;4897734;29;20025;-84
2021/07/08 08:37:09;;;;;;;3.50;2.20;;;;;;;;;;4918067;29;20063;-84
2021/07/08 08:39:50;;;;;;;3.92;2.10;;;;;;;;;;4900207;29;20083;-85
2021/07/08 08:42:24;;;;;;;3.85;2.10;;;;;;;;;;4900948;29;20036;-84
2021/07/08 08:44:53;;;;;;;4.32;2.13;;;;;;;;;;4900651;29;20036;-84
2021/07/08 08:47:22;;;;;;;4.57;2.10;;;;;;;;;;4917469;29;20086;-85
2021/07/08 08:49:54;;;;;;;5.47;2.40;;;;;;;;;;4899689;29;20226;-84
2021/07/08 08:52:39;;;;;;;5.43;2.15;;;;;;;;;;4900025;29;20131;-84
2021/07/08 08:55:09;;;;;;;5.25;2.20;;;;;;;;;;4900180;29;20036;-84
2021/07/08 08:57:49;;;;;;;;;;;;;;;;;;;;;
2021/07/08 09:00:31;;;;;;;5.38;2.25;;;;;;;;;;4917464;29;20461;-85
2021/07/08 09:03:10;;;;;;;5.00;2.30;;;;;;;;;;4900408;29;20123;-85
2021/07/08 09:05:42;;;;;;;3.60;2.05;;;;;;;;;;4898440;29;20052;-85
2021/07/08 09:08:23;;;;;;;4.38;2.20;;;;;;;;;;4900517;29;20032;-85
2021/07/08 09:10:51;;;;;;;3.22;2.15;;;;;;;;;;4917529;29;20083;-84
2021/07/08 09:13:19;;;;;;;3.80;2.35;;;;;;;;;;4916872;29;20489;-84
2021/07/08 09:15:52;;;;;;;3.60;2.08;;;;;;;;;;4899885;29;20091;-85
2021/07/08 09:18:37;;;;;;;4.30;2.10;;;;;;;;;;4899931;29;20557;-85
2021/07/08 09:21:21;;;;;;;2.40;1.92;;;;;;;;;;4917140;29;20028;-84
2021/07/08 09:24:34;;;;;;;4.80;2.10;;;;;;;;;;4899608;29;20055;-85
2021/07/08 09:27:09;;;;;;;4.85;2.10;;;;;;;;;;4900029;29;20040;-84
2021/07/08 09:29:53;;;;;;;3.47;1.90;;;;;;;;;;4899832;29;20480;-84
2021/07/08 09:32:21;;;;;;;3.07;1.97;;;;;;;;;;4900398;29;20032;-84
2021/07/08 09:34:54;;;;;;;3.13;1.73;;;;;;;;;;4896667;29;20024;-84
2021/07/08 09:37:30;;;;;;;3.20;1.80;;;;;;;;;;4900013;29;20392;-84
2021/07/08 09:40:01;;;;;;;2.47;1.75;;;;;;;;;;4917021;29;20032;-84
2021/07/08 09:42:50;;;;;;;3.70;1.77;;;;;;;;;;4899855;29;20028;-85
2021/07/08 09:45:20;;;;;;;3.03;1.80;;;;;;;;;;4916733;29;20040;-84
2021/07/08 09:47:50;;;;;;;4.05;1.75;;;;;;;;;;4916932;29;20020;-84
2021/07/08 09:50:25;;;;;;;3.58;1.80;;;;;;;;;;4900074;29;20355;-84
2021/07/08 09:53:14;;;;;;;3.47;1.80;;;;;;;;;;4900198;29;20033;-85
2021/07/08 09:58:55;;;;;;;2.70;1.85;;;;;;;;;;4894942;29;20028;-84
2021/07/08 10:01:21;;;;;;;2.17;1.70;;;;;;;;;;4916421;29;20024;-85
2021/07/08 10:03:51;;;;;;;5.10;2.15;;;;;;;;;;4899961;29;20032;-84
2021/07/08 10:06:23;;;;;;;2.08;1.65;;;;;;;;;;4900066;29;20036;-84
2021/07/08 10:08:51;;;;;;;4.22;1.73;;;;;;;;;;4908666;29;20096;-84
2021/07/08 10:11:21;;;;;;;3.42;1.50;;;;;;;;;;4885950;29;20035;-84
2021/07/08 10:13:50;;;;;;;6.88;1.85;;;;;;;;;;4896803;29;20028;-84
2021/07/08 10:16:19;;;;;;;4.15;2.00;;;;;;;;;;4896752;29;20035;-84
2021/07/08 10:18:54;;;;;;;2.25;1.63;;;;;;;;;;4896745;29;20051;-84
2021/07/08 10:21:20;;;;;;;3.13;1.80;;;;;;;;;;4897030;29;20037;-84
2021/07/08 10:23:46;;;;;;;2.20;1.65;;;;;;;;;;4882109;29;20045;-84
2021/07/08 10:26:12;;;;;;;1.60;1.50;;;;;;;;;;4880859;29;20072;-85
2021/07/08 10:28:43;;;;;;;2.78;1.67;;;;;;;;;;4881372;29;20085;-85
2021/07/08 10:31:15;;;;;;;4.38;1.80;;;;;;;;;;4881152;29;20029;-85
2021/07/08 10:33:59;;;;;;;2.22;1.70;;;;;;;;;;4880984;29;20172;-85
2021/07/08 10:36:32;;;;;;;3.58;1.88;;;;;;;;;;4898814;29;20036;-85
2021/07/08 10:39:10;;;;;;;2.38;1.80;;;;;;;;;;4884217;29;20075;-84
2021/07/08 10:41:36;;;;;;;2.40;1.60;;;;;;;;;;4884136;29;20393;-84
2021/07/08 10:44:05;;;;;;;4.47;2.05;;;;;;;;;;4884002;29;20037;-84
2021/07/08 10:46:35;;;;;;;4.38;2.13;;;;;;;;;;4900634;29;20044;-84
2021/07/08 10:49:18;;;;;;;2.90;1.90;;;;;;;;;;4883640;29;20037;-84
2021/07/08 10:51:49;;;;;;;2.75;1.70;;;;;;;;;;4900514;29;20104;-85
2021/07/08 10:54:31;;;;;;;2.22;1.70;;;;;;;;;;4884181;29;20043;-84
2021/07/08 10:57:05;;;;;;;2.53;1.73;;;;;;;;;;4883872;29;20032;-84
2021/07/08 10:59:50;;;;;;;2.00;1.55;;;;;;;;;;4900825;29;20035;-85
2021/07/08 11:02:54;;;;;;;5.43;2.10;;;;;;;;;;4883919;29;20103;-85
2021/07/08 11:05:41;;;;;;;3.33;1.90;;;;;;;;;;4875411;29;20080;-84
2021/07/08 11:08:13;;;;;;;6.40;2.10;;;;;;;;;;4900783;29;20029;-84
2021/07/08 11:10:47;;;;;;;3.08;1.85;;;;;;;;;;4883267;29;20064;-84
2021/07/08 11:13:29;;;;;;;2.60;1.80;;;;;;;;;;4883896;29;20025;-85
2021/07/08 11:15:56;;;;;;;2.67;2.00;;;;;;;;;;4883964;29;20032;-84
2021/07/08 11:18:32;;;;;;;3.08;1.83;;;;;;;;;;4900177;29;20032;-84
2021/07/08 11:20:58;;;;;;;4.03;1.88;;;;;;;;;;4884103;29;20222;-84
2021/07/08 11:23:43;;;;;;;2.05;1.80;;;;;;;;;;4883231;29;20128;-84
2021/07/08 11:26:11;;;;;;;2.90;1.80;;;;;;;;;;4885293;29;20048;-83
2021/07/08 11:28:43;;;;;;;2.58;1.90;;;;;;;;;;4886022;29;20028;-83
2021/07/08 11:31:09;;;;;;;1.90;1.70;;;;;;;;;;4884603;29;20389;-83
2021/07/08 11:33:41;;;;;;;2.97;1.80;;;;;;;;;;4884607;29;20017;-84
2021/07/08 11:36:19;;;;;;;2.13;1.90;;;;;;;;;;4882928;29;20462;-85
2021/07/08 11:38:45;;;;;;;2.42;1.90;;;;;;;;;;4886081;29;20060;-84
2021/07/08 11:41:27;;;;;;;2.55;1.90;;;;;;;;;;4886945;29;20033;-84
2021/07/08 11:44:19;;;;;;;5.72;2.00;;;;;;;;;;4898569;29;20053;-85
2021/07/08 11:46:47;;;;;;;7.57;2.00;;;;;;;;;;4902154;29;20092;-83
2021/07/08 11:49:13;;;;;;;2.63;2.00;;;;;;;;;;4888686;29;20088;-84
2021/07/08 11:51:42;;;;;;;3.33;1.95;;;;;;;;;;4884746;29;20032;-84
2021/07/08 11:54:14;;;;;;;3.42;1.90;;;;;;;;;;4884757;29;20029;-84
2021/07/08 11:56:54;;;;;;;3.33;1.90;;;26.60;91.10;;;;;;4885066;29;20029;-86
2021/07/08 11:59:28;;;;;;;3.90;2.17;;;26.70;90.80;;;;;;4900046;29;20032;-85
2021/07/08 12:02:33;;;;;;;4.30;2.10;;;26.70;90.80;;;;;;4902694;29;20029;-85
2021/07/08 12:05:21;;;;;;;2.80;2.00;;;26.60;90.50;;;;;;4873970;29;20084;-85
2021/07/08 12:08:36;;;;;;;2.90;1.90;;;26.40;90.10;;;;;;4883349;29;20033;-85
2021/07/08 12:11:25;;;;;;;3.80;2.30;;;26.20;90.20;;;;;;4868617;29;20473;-85
2021/07/08 12:14:07;;;;;;;4.70;2.10;;;26.00;90.10;;;;;;4883159;29;20265;-85
2021/07/08 12:19:40;;;;;;;3.42;2.00;;;25.80;90.20;;;;;;4899708;29;20032;-85
2021/07/08 12:22:23;;;;;;;4.28;2.20;;;25.70;90.50;;;;;;4885588;29;20056;-85
2021/07/08 12:25:16;;;;;;;4.63;2.30;;;25.70;90.60;;;;;;4901045;29;20036;-85
2021/07/08 12:27:59;;;;;;;;;;;;;;;;;;;;;
2021/07/08 12:30:40;;;;;;;3.77;2.10;;;25.40;90.10;;;;;;4919553;29;20495;-85
2021/07/08 12:33:16;;;;;;;3.92;2.30;;;25.20;90.30;;;;;;4905722;29;20032;-84
2021/07/08 12:36:09;;;;;;;4.32;2.17;;;25.10;90.40;;;;;;4901713;29;20035;-85
2021/07/08 12:38:39;;;;;;;5.15;2.60;;;25.00;90.40;;;;;;4905889;29;20044;-85
2021/07/08 12:41:24;;;;;;;5.80;2.75;;;24.70;90.20;;;;;;4907871;29;20043;-85
2021/07/08 12:44:06;;;;;;;6.28;2.90;;;24.70;90.60;;;;;;4908576;29;20032;-85
2021/07/08 12:46:40;;;;;;;6.05;3.20;;;24.60;90.70;;;;;;4906915;29;20040;-85
2021/07/08 12:49:15;;;;;;;4.72;2.67;;;24.60;90.80;;;;;;4919738;29;20504;-85
2021/07/08 12:51:42;;;;;;;7.60;2.97;;;24.70;91.00;;;;;;4904481;29;20035;-83
2021/07/08 12:54:11;;;;;;;5.88;2.83;;;24.50;90.80;;;;;;4920431;29;20611;-84
2021/07/08 13:00:26;;;;;;;5.05;2.42;;;24.40;90.80;;;;;;4857090;29;20494;-86
2021/07/08 13:03:12;;;;;;;4.35;2.40;;;24.40;90.90;;;;;;4864672;29;20170;-86
2021/07/08 13:06:12;;;;;;;4.72;2.40;;;24.30;91.00;;;;;;4858047;29;20045;-86
2021/07/08 13:09:53;;;;;;;;;;;;;;;;;;;;;
2021/07/08 13:12:59;;;;;;;4.32;2.40;;;24.30;91.50;;;;;;4888315;29;20123;-86
2021/07/08 13:16:04;;;;;;;5.28;2.58;;;24.40;91.40;;;;;;4880953;29;20044;-87
2021/07/08 13:19:07;;;;;;;;;;;;;;;;;;;;;
2021/07/08 13:25:58;;;;;;;5.40;2.30;;;24.50;91.40;;;;;;4809858;29;20078;-87
2021/07/08 13:42:18;;;;;;;4.68;2.60;;;24.40;91.80;;;;;;4825817;29;20471;-85
2021/07/08 13:44:44;;;;;;;5.45;2.90;;;24.60;91.70;;;;;;4812499;29;20039;-82
2021/07/08 13:47:12;;;;;;;7.82;3.00;;;24.60;91.60;;;;;;4900905;29;20149;-82
2021/07/08 13:49:59;;;;;;;7.50;3.13;;;24.60;91.40;;;;;;4900937;29;20616;-84
2021/07/08 13:52:41;;;;;;;6.90;2.85;;;24.70;91.60;;;;;;4901121;29;20029;-85
2021/07/08 13:55:45;;;;;;;8.05;3.15;;;24.70;91.60;;;;;;4884592;29;20032;-84
2021/07/08 13:58:36;;;;;;;9.13;3.00;;;24.80;92.00;;;;;;4895232;29;20473;-85
2021/07/08 14:01:08;;;;;;;5.32;2.83;;;24.90;91.70;;;;;;4889471;29;20047;-84
2021/07/08 14:04:19;;;;;;;5.28;2.80;;;24.90;91.30;;;;;;4888455;29;20032;-85
2021/07/08 14:06:49;;;;;;;5.47;2.58;;;24.80;91.30;;;;;;4902153;29;20041;-84
2021/07/08 14:09:15;;;;;;;6.07;2.90;;;24.70;90.90;;;;;;4906036;29;20485;-84
2021/07/08 14:11:41;;;;;;;7.72;2.60;;;24.60;91.10;;;;;;4905937;29;20036;-83
2021/07/08 14:14:07;;;;;;;5.78;2.55;;;24.50;91.10;;;;;;4906201;29;20031;-84
2021/07/08 14:16:42;;;;;;;5.68;2.80;;;24.50;91.20;;;;;;4889315;29;20032;-84
2021/07/08 14:19:08;;;;;;;7.65;2.97;;;24.50;91.10;;;;;;4905171;29;20119;-84
2021/07/08 14:21:43;;;;;;;6.65;3.17;;;24.40;91.20;;;;;;4905425;29;20068;-85
2021/07/08 14:24:14;;;;;;;7.28;3.53;;;24.30;91.00;;;;;;4901896;29;20576;-83
2021/07/08 14:27:13;;;;;;;8.00;3.25;;;24.20;91.00;;;;;;4926875;29;20039;-85
2021/07/08 14:29:48;;;;;;;6.90;3.60;;;24.20;91.70;;;;;;4888401;29;20492;-82
2021/07/08 14:32:16;;;;;;;6.60;3.38;;;24.20;91.20;;;;;;4925152;29;20025;-83
2021/07/08 14:34:53;;;;;;;10.98;3.90;;;24.00;91.00;;;;;;4905057;29;20032;-85
2021/07/08 14:37:18;;;;;;;7.22;3.70;;;24.00;91.00;;;;;;4907925;29;20385;-84
2021/07/08 14:39:49;;;;;;;9.55;3.78;;;23.90;91.50;;;;;;4905805;29;20024;-84
2021/07/08 14:42:51;;;;;;;7.70;3.72;;;23.80;91.00;;;;;;4906782;29;20032;-84